Time;durP1;ratioP1;P1;durP2;ratioP2;P2;SDS_P1;SDS_P2;PMS_P1;PMS_P2;Temp;Humidity;BMP_temperature;BMP_pressure;BME280_temperature;BME280_humidity;BME280_pressure;Samples;Min_cycle;Max_cycle;Signal;HPM_P1;HPM_P2
2023/03/06 00:01:34;;;;;;;10.50;3.40;;;;;;;;;;5022587;28;20132;-81
2023/03/06 00:04:02;;;;;;;7.40;3.30;;;;;;;;;;5036614;28;20037;-81
2023/03/06 00:06:30;;;;;;;6.65;3.85;;;;;;;;;;5054099;28;20551;-81
2023/03/06 00:09:00;;;;;;;7.32;3.58;;;;;;;;;;5039345;28;20052;-82
2023/03/06 00:11:28;;;;;;;8.23;4.03;;;;;;;;;;5038701;28;20622;-81
2023/03/06 00:13:56;;;;;;;7.88;3.78;;;;;;;;;;5039497;28;20108;-81
2023/03/06 00:16:24;;;;;;;9.63;4.05;;;;;;;;;;5039775;28;20128;-82
2023/03/06 00:18:52;;;;;;;10.75;4.97;;;;;;;;;;5037932;28;20550;-81
2023/03/06 00:22:12;;;;;;;8.70;4.97;;;;;;;;;;5054496;28;20040;-81
2023/03/06 00:24:41;;;;;;;10.60;5.57;;;;;;;;;;5055013;28;20037;-81
2023/03/06 00:27:08;;;;;;;13.63;6.20;;;;;;;;;;5024761;28;20056;-81
2023/03/06 00:30:08;;;;;;;11.52;5.85;;;;;;;;;;5026616;28;20034;-81
2023/03/06 00:32:43;;;;;;;11.65;5.95;;;;;;;;;;5037506;28;20033;-81
2023/03/06 00:35:11;;;;;;;12.23;5.22;;;;;;;;;;5021523;28;20047;-82
2023/03/06 00:37:44;;;;;;;11.60;6.03;;;;;;;;;;5041497;28;20048;-81
2023/03/06 00:40:15;;;;;;;11.75;6.07;;;;;;;;;;5024046;28;20029;-81
2023/03/06 00:42:48;;;;;;;12.93;5.95;;;;;;;;;;5056165;28;20095;-81
2023/03/06 00:45:16;;;;;;;14.18;6.88;;;;;;;;;;5021812;28;20041;-81
2023/03/06 00:47:49;;;;;;;14.13;6.97;;;;;;;;;;5020575;28;20052;-81
2023/03/06 00:50:16;;;;;;;12.18;6.55;;;;;;;;;;5035222;28;20045;-81
2023/03/06 00:53:12;;;;;;;11.90;5.70;;;;;;;;;;5028541;28;20099;-81
2023/03/06 00:56:28;;;;;;;14.32;6.43;;;;;;;;;;5039635;28;20558;-82
2023/03/06 00:59:00;;;;;;;13.32;6.20;;;;;;;;;;5019865;28;20052;-81
2023/03/06 01:01:28;;;;;;;15.20;6.75;;;;;;;;;;5020881;28;20040;-81
2023/03/06 01:03:56;;;;;;;16.00;6.30;;;;;;;;;;5020821;28;20491;-82
2023/03/06 01:06:48;;;;;;;15.43;6.47;;;;;;;;;;5053135;28;20033;-81
2023/03/06 01:09:40;;;;;;;13.15;5.80;;;;;;;;;;5035395;28;20036;-81
2023/03/06 01:12:08;;;;;;;13.25;6.55;;;;;;;;;;5020147;28;20034;-81
2023/03/06 01:14:40;;;;;;;11.82;5.82;;;;;;;;;;5034306;28;20052;-81
2023/03/06 01:17:09;;;;;;;16.55;6.05;;;;;;;;;;5019634;28;20091;-81
2023/03/06 01:19:36;;;;;;;14.82;6.35;;;;;;;;;;5043802;28;20048;-81
2023/03/06 01:22:30;;;;;;;13.20;5.70;;;;;;;;;;5047870;28;20040;-81
2023/03/06 01:24:58;;;;;;;11.45;5.22;;;;;;;;;;5036987;28;20680;-81
2023/03/06 01:27:26;;;;;;;11.55;5.43;;;;;;;;;;5035214;28;20087;-81
2023/03/06 01:29:54;;;;;;;9.88;4.55;;;;;;;;;;5036911;28;20037;-81
2023/03/06 01:32:22;;;;;;;10.65;4.38;;;;;;;;;;5035925;28;20029;-81
2023/03/06 01:34:50;;;;;;;9.70;4.72;;;;;;;;;;5050017;28;20037;-81
2023/03/06 01:37:18;;;;;;;8.02;3.95;;;;;;;;;;5037778;28;20041;-81
2023/03/06 01:39:47;;;;;;;9.50;4.03;;;;;;;;;;5021927;28;20053;-81
2023/03/06 01:42:15;;;;;;;8.05;3.55;;;;;;;;;;5020766;28;20041;-81
2023/03/06 01:45:17;;;;;;;6.60;3.13;;;;;;;;;;5038309;28;20043;-81
2023/03/06 01:47:44;;;;;;;7.50;3.03;;;;;;;;;;4982832;28;20089;-81
2023/03/06 01:50:16;;;;;;;6.40;2.95;;;;;;;;;;4998865;28;20050;-81
2023/03/06 01:52:51;;;;;;;5.55;2.47;;;;;;;;;;4998628;28;20468;-81
2023/03/06 01:55:25;;;;;;;6.45;3.20;;;;;;;;;;4981241;28;20081;-81
2023/03/06 01:57:56;;;;;;;7.88;3.60;;;;;;;;;;4999160;28;20062;-81
2023/03/06 02:00:29;;;;;;;7.68;3.65;;;;;;;;;;4990899;28;20044;-81
2023/03/06 02:03:11;;;;;;;6.57;2.97;;;;;;;;;;4980788;28;20058;-81
2023/03/06 02:05:41;;;;;;;8.15;3.20;;;;;;;;;;4979850;28;20046;-82
2023/03/06 02:08:11;;;;;;;8.18;3.15;;;;;;;;;;4982015;28;20225;-81
2023/03/06 02:10:56;;;;;;;7.70;3.20;;;;;;;;;;4981501;28;20046;-81
2023/03/06 02:13:24;;;;;;;6.88;2.75;;;;;;;;;;4998416;28;20049;-81
2023/03/06 02:15:59;;;;;;;7.55;3.22;;;;;;;;;;4980126;28;20377;-81
2023/03/06 02:18:27;;;;;;;8.52;3.17;;;;;;;;;;4998982;28;20137;-81
2023/03/06 02:21:01;;;;;;;10.40;3.65;;;;;;;;;;4979002;28;20046;-81
2023/03/06 02:23:51;;;;;;;9.35;4.05;;;;;;;;;;5006975;28;20414;-81
2023/03/06 02:26:20;;;;;;;10.52;3.70;;;;;;;;;;5054914;28;20119;-81
2023/03/06 02:28:48;;;;;;;9.20;3.63;;;;;;;;;;5037417;28;20041;-81
2023/03/06 02:31:28;;;;;;;8.95;3.70;;;;;;;;;;5041526;28;20159;-82
2023/03/06 02:34:13;;;;;;;8.55;3.67;;;;;;;;;;5055580;28;20045;-81
2023/03/06 02:36:47;;;;;;;7.35;3.67;;;;;;;;;;5054867;28;20135;-81
2023/03/06 02:39:26;;;;;;;7.75;3.58;;;;;;;;;;5055014;28;20033;-81
2023/03/06 02:41:58;;;;;;;8.57;4.13;;;;;;;;;;5054042;28;20484;-81
2023/03/06 02:44:29;;;;;;;7.75;4.13;;;;;;;;;;5055702;28;20068;-82
2023/03/06 02:46:56;;;;;;;11.73;4.70;;;;;;;;;;5040754;28;20041;-81
2023/03/06 02:49:28;;;;;;;11.40;4.38;;;;;;;;;;5040095;28;20045;-81
2023/03/06 02:51:56;;;;;;;9.60;4.45;;;;;;;;;;5037752;28;20044;-81
2023/03/06 02:54:28;;;;;;;14.02;5.38;;;;;;;;;;5052707;28;20407;-81
2023/03/06 02:56:56;;;;;;;11.13;5.00;;;;;;;;;;5022750;28;20037;-81
2023/03/06 02:59:30;;;;;;;10.60;4.88;;;;;;;;;;5056025;28;20115;-82
2023/03/06 03:01:58;;;;;;;15.32;5.43;;;;;;;;;;5040979;28;20076;-81
2023/03/06 03:04:26;;;;;;;11.88;5.03;;;;;;;;;;5022140;28;20037;-81
2023/03/06 03:06:54;;;;;;;9.45;4.60;;;;;;;;;;5022740;28;20473;-81
2023/03/06 03:09:24;;;;;;;13.32;5.53;;;;;;;;;;5054153;28;20051;-81
2023/03/06 03:11:52;;;;;;;12.30;5.05;;;;;;;;;;5020838;28;20468;-81
2023/03/06 03:14:20;;;;;;;11.75;4.72;;;;;;;;;;5037577;28;20045;-81
2023/03/06 03:17:14;;;;;;;13.18;5.53;;;;;;;;;;5037810;28;20036;-81
2023/03/06 03:20:11;;;;;;;11.38;4.57;;;;;;;;;;5055925;28;20088;-81
2023/03/06 03:22:39;;;;;;;13.95;4.85;;;;;;;;;;5023111;28;20049;-81
2023/03/06 03:25:18;;;;;;;13.60;5.70;;;;;;;;;;5021876;28;20133;-81
2023/03/06 03:27:46;;;;;;;11.27;5.30;;;;;;;;;;5006810;28;20502;-81
2023/03/06 03:30:15;;;;;;;14.38;5.07;;;;;;;;;;5023150;28;20041;-81
2023/03/06 03:32:42;;;;;;;12.15;5.57;;;;;;;;;;5029352;28;20033;-81
2023/03/06 03:35:35;;;;;;;12.13;4.97;;;;;;;;;;5052266;28;20041;-81
2023/03/06 03:38:08;;;;;;;13.88;5.95;;;;;;;;;;5020088;28;20053;-81
2023/03/06 03:43:54;;;;;;;18.80;6.13;;;;;;;;;;5054001;28;20455;-81
2023/03/06 03:46:28;;;;;;;12.95;5.93;;;;;;;;;;5038615;28;20455;-81
2023/03/06 03:48:57;;;;;;;16.38;5.32;;;;;;;;;;5021362;28;20037;-81
2023/03/06 03:51:26;;;;;;;15.23;5.43;;;;;;;;;;5007762;28;20169;-81
2023/03/06 03:53:56;;;;;;;15.30;5.57;;;;;;;;;;5021033;28;20597;-81
2023/03/06 03:56:26;;;;;;;14.65;5.32;;;;;;;;;;5052254;28;20048;-81
2023/03/06 03:59:08;;;;;;;14.50;5.65;;;;;;;;;;5041311;28;20059;-81
2023/03/06 04:01:54;;;;;;;14.07;5.63;;;;;;;;;;5053764;28;20053;-82
2023/03/06 04:04:24;;;;;;;14.15;5.93;;;;;;;;;;5021946;28;20044;-81
2023/03/06 04:06:56;;;;;;;14.90;6.03;;;;;;;;;;5020931;28;20116;-81
2023/03/06 04:09:24;;;;;;;15.00;6.03;;;;;;;;;;5054545;28;20063;-81
2023/03/06 04:12:18;;;;;;;17.50;6.15;;;;;;;;;;5040154;28;20033;-81
2023/03/06 04:14:50;;;;;;;12.77;5.75;;;;;;;;;;5043370;28;20049;-81
2023/03/06 04:17:18;;;;;;;15.40;5.63;;;;;;;;;;5021640;28;20505;-81
2023/03/06 04:19:46;;;;;;;15.45;6.28;;;;;;;;;;5021087;28;20123;-81
2023/03/06 04:22:16;;;;;;;12.52;5.20;;;;;;;;;;5053226;28;20388;-81
2023/03/06 04:24:48;;;;;;;16.02;5.90;;;;;;;;;;5052680;28;20053;-81
2023/03/06 04:27:16;;;;;;;14.43;6.13;;;;;;;;;;5037476;28;20052;-81
2023/03/06 04:29:44;;;;;;;15.27;5.93;;;;;;;;;;5021937;28;20511;-81
2023/03/06 04:32:12;;;;;;;12.68;4.80;;;;;;;;;;5019920;28;20041;-81
2023/03/06 04:34:40;;;;;;;14.55;6.13;;;;;;;;;;5019732;28;20132;-81
2023/03/06 04:37:21;;;;;;;14.45;5.78;;;;;;;;;;5038759;28;20052;-81
2023/03/06 04:39:56;;;;;;;16.35;5.45;;;;;;;;;;5022441;28;20036;-81
2023/03/06 04:42:22;;;;;;;13.88;5.70;;;;;;;;;;5037650;28;20087;-81
2023/03/06 04:44:50;;;;;;;15.68;5.28;;;;;;;;;;5038409;28;20049;-81
2023/03/06 04:47:22;;;;;;;13.50;5.85;;;;;;;;;;5036401;28;20064;-81
2023/03/06 04:49:50;;;;;;;14.73;6.00;;;;;;;;;;5035691;28;20415;-81
2023/03/06 04:52:18;;;;;;;13.07;5.82;;;;;;;;;;5052406;28;20060;-81
2023/03/06 04:54:50;;;;;;;14.90;5.90;;;;;;;;;;5053558;28;20038;-81
2023/03/06 04:57:18;;;;;;;14.05;5.53;;;;;;;;;;5036881;28;20512;-81
2023/03/06 04:59:47;;;;;;;16.65;6.63;;;;;;;;;;5054178;28;20051;-81
2023/03/06 05:02:15;;;;;;;13.55;6.18;;;;;;;;;;5037080;28;20131;-81
2023/03/06 05:04:48;;;;;;;16.35;6.57;;;;;;;;;;5037278;28;20040;-81
2023/03/06 05:07:16;;;;;;;16.60;6.13;;;;;;;;;;5054387;28;20045;-81
2023/03/06 05:09:44;;;;;;;16.75;6.72;;;;;;;;;;5041602;28;20123;-81
2023/03/06 05:12:12;;;;;;;16.50;5.32;;;;;;;;;;5056673;28;20041;-81
2023/03/06 05:14:40;;;;;;;19.60;5.85;;;;;;;;;;5040488;28;20041;-81
2023/03/06 05:17:08;;;;;;;12.73;4.88;;;;;;;;;;5039558;28;20111;-81
2023/03/06 05:19:36;;;;;;;12.73;5.53;;;;;;;;;;5027333;28;20583;-81
2023/03/06 05:22:04;;;;;;;12.07;4.25;;;;;;;;;;5044051;28;20037;-81
2023/03/06 05:24:32;;;;;;;11.90;4.03;;;;;;;;;;5046120;28;20086;-81
2023/03/06 05:27:27;;;;;;;9.43;3.80;;;;;;;;;;5043818;28;20080;-81
2023/03/06 05:29:55;;;;;;;10.05;4.38;;;;;;;;;;5046531;28;20508;-81
2023/03/06 05:32:22;;;;;;;13.23;4.30;;;;;;;;;;5044510;28;20041;-81
2023/03/06 05:34:50;;;;;;;13.18;5.28;;;;;;;;;;5044313;28;20056;-81
2023/03/06 05:37:18;;;;;;;14.27;5.50;;;;;;;;;;5043120;28;20049;-81
2023/03/06 05:39:46;;;;;;;13.13;5.10;;;;;;;;;;5026927;28;20111;-81
2023/03/06 05:42:14;;;;;;;11.18;4.63;;;;;;;;;;5027690;28;20133;-81
2023/03/06 05:45:07;;;;;;;12.98;4.35;;;;;;;;;;5042085;28;20414;-81
2023/03/06 05:47:58;;;;;;;12.23;4.90;;;;;;;;;;5059998;28;20038;-81
2023/03/06 05:50:30;;;;;;;12.30;4.68;;;;;;;;;;5059649;28;20508;-81
2023/03/06 05:52:59;;;;;;;9.98;4.28;;;;;;;;;;5045074;28;20037;-81
2023/03/06 05:55:26;;;;;;;11.68;4.65;;;;;;;;;;5043574;28;20029;-81
2023/03/06 05:58:14;;;;;;;14.73;6.22;;;;;;;;;;5044669;28;20048;-81
2023/03/06 06:00:44;;;;;;;15.00;5.03;;;;;;;;;;5027444;28;20045;-81
2023/03/06 06:03:28;;;;;;;11.27;4.15;;;;;;;;;;5021144;28;20104;-81
2023/03/06 06:05:56;;;;;;;11.23;4.55;;;;;;;;;;5036574;28;20057;-81
2023/03/06 06:08:28;;;;;;;9.98;4.55;;;;;;;;;;5006425;28;20461;-81
2023/03/06 06:11:02;;;;;;;11.00;4.13;;;;;;;;;;5020026;28;20057;-81
2023/03/06 06:13:31;;;;;;;7.45;3.30;;;;;;;;;;5019349;28;20049;-81
2023/03/06 06:15:58;;;;;;;8.73;3.13;;;;;;;;;;5021278;28;20060;-80
2023/03/06 06:18:26;;;;;;;6.43;2.70;;;;;;;;;;5020872;28;20049;-80
2023/03/06 06:20:54;;;;;;;7.32;3.08;;;;;;;;;;5018472;28;20397;-81
2023/03/06 06:23:26;;;;;;;7.45;2.78;;;;;;;;;;5019543;28;20065;-80
2023/03/06 06:26:18;;;;;;;6.90;3.10;;;;;;;;;;5032057;28;20476;-80
2023/03/06 06:29:11;;;;;;;7.88;3.00;;;;;;;;;;5045387;28;20029;-80
2023/03/06 06:31:39;;;;;;;10.93;2.83;;;;;;;;;;5041675;28;20058;-81
2023/03/06 06:34:33;;;;;;;6.47;2.88;;;;;;;;;;5041156;28;20064;-80
2023/03/06 06:37:00;;;;;;;9.13;3.08;;;;;;;;;;5043729;28;20045;-80
2023/03/06 06:39:32;;;;;;;8.02;3.05;;;;;;;;;;5041286;28;20037;-80
2023/03/06 06:42:01;;;;;;;6.78;2.97;;;;;;;;;;5045094;28;20551;-80
2023/03/06 06:45:14;;;;;;;9.07;3.30;;;;;;;;;;5043274;28;20045;-80
2023/03/06 06:48:06;;;;;;;7.60;3.20;;;;;;;;;;5040921;28;20188;-81
2023/03/06 06:50:34;;;;;;;12.98;3.95;;;;;;;;;;5043970;28;20128;-82
2023/03/06 06:53:03;;;;;;;10.50;3.58;;;;;;;;;;5058185;28;20037;-81
2023/03/06 06:55:30;;;;;;;10.73;4.38;;;;;;;;;;5040409;28;20594;-80
2023/03/06 06:58:02;;;;;;;8.32;3.60;;;;;;;;;;5043578;28;20044;-80
2023/03/06 07:00:30;;;;;;;10.50;3.67;;;;;;;;;;5027575;28;20049;-80
2023/03/06 07:02:58;;;;;;;8.63;3.92;;;;;;;;;;5040203;28;20566;-80
2023/03/06 07:05:26;;;;;;;11.15;3.58;;;;;;;;;;5043310;28;20072;-81
2023/03/06 07:07:54;;;;;;;12.70;4.53;;;;;;;;;;5045265;28;20048;-80
2023/03/06 07:10:31;;;;;;;12.57;4.88;;;;;;;;;;5042146;28;20969;-80
2023/03/06 07:13:24;;;;;;;10.20;4.40;;;;;;;;;;5043152;28;20127;-80
2023/03/06 07:15:52;;;;;;;11.63;4.15;;;;;;;;;;5039526;28;20079;-80
2023/03/06 07:18:20;;;;;;;10.18;4.38;;;;;;;;;;5043177;28;20046;-80
2023/03/06 07:20:53;;;;;;;9.57;3.97;;;;;;;;;;5043356;28;20514;-80
2023/03/06 07:23:21;;;;;;;14.30;4.10;;;;;;;;;;5026210;28;20068;-80
2023/03/06 07:25:48;;;;;;;8.68;4.00;;;;;;;;;;5042723;28;20136;-80
2023/03/06 07:28:23;;;;;;;9.63;4.53;;;;;;;;;;5042723;28;20488;-80
2023/03/06 07:31:16;;;;;;;8.48;3.40;;;;;;;;;;5051526;28;20041;-80
2023/03/06 07:33:44;;;;;;;8.27;3.67;;;;;;;;;;5053542;28;20602;-80
2023/03/06 07:36:12;;;;;;;10.27;3.97;;;;;;;;;;5042422;28;20041;-80
2023/03/06 07:38:40;;;;;;;7.47;3.95;;;;;;;;;;5023678;28;20076;-80
2023/03/06 07:44:26;;;;;;;9.88;4.53;;;;;;;;;;5033104;28;20041;-80
2023/03/06 07:46:54;;;;;;;11.55;4.18;;;;;;;;;;5020320;28;20037;-80
2023/03/06 07:49:22;;;;;;;12.98;4.90;;;;;;;;;;5036885;28;20509;-80
2023/03/06 07:52:15;;;;;;;14.20;4.43;;;;;;;;;;5040729;28;20033;-80
2023/03/06 07:54:42;;;;;;;9.60;4.60;;;;;;;;;;5038759;28;20143;-80
2023/03/06 07:57:12;;;;;;;9.50;5.05;;;;;;;;;;5040467;28;20036;-80
2023/03/06 07:59:38;;;;;;;11.73;5.32;;;;;;;;;;5038886;28;20136;-80
2023/03/06 08:02:06;;;;;;;12.25;5.50;;;;;;;;;;5021729;28;20069;-80
2023/03/06 08:04:34;;;;;;;12.70;4.50;;;;;;;;;;5037506;28;20494;-80
2023/03/06 08:07:06;;;;;;;13.25;4.55;;;;;;;;;;5055512;28;20051;-83
2023/03/06 08:09:58;;;;;;;10.50;4.45;;;;;;;;;;5030284;28;20494;-83
2023/03/06 08:12:26;;;;;;;7.97;3.00;;;;;;;;;;5035550;28;20041;-83
2023/03/06 08:14:54;;;;;;;9.85;4.13;;;;;;;;;;5038367;28;20041;-83
2023/03/06 08:17:22;;;;;;;10.98;3.72;;;;;;;;;;5022357;28;20034;-83
2023/03/06 08:19:50;;;;;;;12.07;4.45;;;;;;;;;;5025524;28;20168;-83
2023/03/06 08:22:43;;;;;;;8.48;3.45;;;;;;;;;;5023589;28;20043;-83
2023/03/06 08:25:12;;;;;;;8.82;3.30;;;;;;;;;;5036655;28;20898;-83
2023/03/06 08:27:40;;;;;;;9.85;3.45;;;;;;;;;;5036216;28;20033;-83
2023/03/06 08:30:09;;;;;;;8.43;4.10;;;;;;;;;;5034689;28;20047;-83
2023/03/06 08:32:36;;;;;;;9.55;3.45;;;;;;;;;;5037144;28;20047;-83
2023/03/06 08:35:14;;;;;;;8.52;3.30;;;;;;;;;;5036595;28;20050;-83
2023/03/06 08:37:40;;;;;;;9.50;4.10;;;;;;;;;;5055559;28;20103;-83
2023/03/06 08:40:09;;;;;;;9.05;3.63;;;;;;;;;;5036098;28;20045;-83
2023/03/06 08:42:36;;;;;;;7.20;3.05;;;;;;;;;;5052422;28;20070;-83
2023/03/06 08:45:08;;;;;;;8.40;3.30;;;;;;;;;;5049403;28;20505;-83
2023/03/06 08:47:36;;;;;;;7.43;3.20;;;;;;;;;;5036030;28;20040;-83
2023/03/06 08:50:04;;;;;;;7.82;3.47;;;;;;;;;;5022283;28;20048;-83
2023/03/06 08:52:37;;;;;;;10.38;4.20;;;;;;;;;;5034976;28;20064;-83
2023/03/06 08:55:05;;;;;;;9.32;3.28;;;;;;;;;;5035698;28;20067;-83
2023/03/06 08:57:32;;;;;;;6.70;2.92;;;;;;;;;;5055344;28;20071;-83
2023/03/06 09:00:00;;;;;;;8.98;3.53;;;;;;;;;;5036002;28;20037;-83
2023/03/06 09:02:28;;;;;;;8.77;3.40;;;;;;;;;;5035407;28;20425;-83
2023/03/06 09:04:58;;;;;;;7.03;2.95;;;;;;;;;;5041036;28;20078;-83
2023/03/06 09:07:30;;;;;;;14.80;4.38;;;;;;;;;;5040126;28;20143;-83
2023/03/06 09:09:58;;;;;;;6.70;3.28;;;;;;;;;;5036674;28;20037;-83
2023/03/06 09:12:26;;;;;;;8.52;3.80;;;;;;;;;;5021541;28;20133;-83
2023/03/06 09:14:56;;;;;;;9.93;3.00;;;;;;;;;;5036981;28;20105;-83
2023/03/06 09:17:24;;;;;;;7.78;3.63;;;;;;;;;;5018213;28;20092;-83
2023/03/06 09:19:52;;;;;;;9.85;3.45;;;;;;;;;;5018502;28;20372;-83
2023/03/06 09:22:20;;;;;;;9.52;3.63;;;;;;;;;;5048528;28;20046;-83
2023/03/06 09:24:49;;;;;;;8.73;3.30;;;;;;;;;;5051062;28;20044;-83
2023/03/06 09:27:22;;;;;;;11.18;3.83;;;;;;;;;;5036716;28;20041;-83
2023/03/06 09:29:50;;;;;;;7.93;3.30;;;;;;;;;;5021969;28;20063;-83
2023/03/06 09:32:18;;;;;;;8.40;3.85;;;;;;;;;;5019787;28;20520;-83
2023/03/06 09:34:46;;;;;;;8.23;3.40;;;;;;;;;;5010840;28;20049;-83
2023/03/06 09:37:15;;;;;;;10.45;3.65;;;;;;;;;;5037703;28;20040;-83
2023/03/06 09:39:44;;;;;;;9.23;3.22;;;;;;;;;;5053576;28;20043;-83
2023/03/06 09:42:18;;;;;;;8.00;3.30;;;;;;;;;;5012637;28;20036;-83
2023/03/06 09:44:54;;;;;;;7.88;3.10;;;;;;;;;;5053663;28;20045;-83
2023/03/06 09:47:35;;;;;;;7.78;2.53;;;;;;;;;;5035683;28;20415;-83
2023/03/06 09:50:14;;;;;;;7.40;2.90;;;;;;;;;;5038283;28;20513;-83
2023/03/06 09:55:59;;;;;;;6.05;3.00;;;;;;;;;;5020884;28;20091;-83
2023/03/06 09:58:28;;;;;;;8.88;3.03;;;;;;;;;;5051957;28;20059;-83
2023/03/06 10:01:05;;;;;;;8.60;3.95;;;;;;;;;;5053192;28;20392;-83
2023/03/06 10:03:32;;;;;;;9.05;3.97;;;;;;;;;;5037617;28;20116;-83
2023/03/06 10:06:09;;;;;;;11.68;3.42;;;;;;;;;;5041270;28;20041;-83
2023/03/06 10:09:17;;;;;;;9.63;2.90;;;;;;;;;;5041202;28;20403;-83
2023/03/06 10:11:54;;;;;;;9.68;3.25;;;;;;;;;;5040879;28;20156;-83
2023/03/06 10:14:26;;;;;;;6.97;3.00;;;;;;;;;;5041870;28;20578;-83
2023/03/06 10:16:55;;;;;;;5.38;2.53;;;;;;;;;;5039030;28;20033;-83
2023/03/06 10:19:34;;;;;;;9.20;3.40;;;;;;;;;;5036731;28;20042;-83
2023/03/06 10:22:02;;;;;;;7.63;2.95;;;;;;;;;;5038837;28;20063;-83
2023/03/06 10:25:04;;;;;;;12.35;3.83;;;;;;;;;;5040651;28;20135;-83
2023/03/06 10:27:55;;;;;;;7.60;3.22;;;;;;;;;;5042243;28;20045;-83
2023/03/06 10:30:51;;;;;;;7.88;3.25;;;;;;;;;;5040722;28;20544;-83
2023/03/06 10:33:50;;;;;;;5.22;2.63;;;;;;;;;;5040344;28;20033;-83
2023/03/06 10:36:20;;;;;;;10.15;3.33;;;;;;;;;;5040021;28;20037;-82
2023/03/06 10:38:49;;;;;;;7.65;3.70;;;;;;;;;;5025086;28;20052;-83
2023/03/06 10:41:23;;;;;;;7.53;3.13;;;;;;;;;;5058414;28;20037;-83
2023/03/06 10:43:59;;;;;;;6.53;2.92;;;;;;;;;;5025510;28;21515;-83
2023/03/06 10:46:29;;;;;;;6.70;3.30;;;;;;;;;;5055113;28;20562;-83
2023/03/06 10:49:02;;;;;;;6.53;3.15;;;;;;;;;;5042220;28;20095;-83
2023/03/06 10:51:32;;;;;;;5.82;2.67;;;;;;;;;;5042755;28;20310;-83
2023/03/06 10:54:17;;;;;;;5.13;2.33;;;;;;;;;;5041960;28;20065;-83
2023/03/06 10:57:36;;;;;;;7.60;2.88;;;;;;;;;;5040862;28;20399;-83
2023/03/06 11:03:21;;;;;;;9.25;2.63;;;;;;;;;;5039827;28;20041;-83
2023/03/06 11:05:54;;;;;;;7.43;2.55;;;;;;;;;;5052619;28;20038;-83
2023/03/06 11:08:22;;;;;;;6.40;2.92;;;;;;;;;;5033832;28;20038;-83
2023/03/06 11:10:56;;;;;;;9.45;2.90;;;;;;;;;;5039918;28;20168;-83
2023/03/06 11:13:32;;;;;;;9.57;3.67;;;;;;;;;;5050941;28;20121;-83
2023/03/06 11:16:22;;;;;;;6.70;2.47;;;;;;;;;;5037646;28;20399;-83
2023/03/06 11:19:38;;;;;;;;;;;;;;;;;;5031936;28;20471;-83
2023/03/06 11:22:18;;;;;;;6.72;2.83;;;;;;;;;;5035511;28;19967;-83
2023/03/06 11:24:52;;;;;;;7.53;3.03;;;;;;;;;;5025434;28;20041;-83
2023/03/06 11:27:21;;;;;;;10.23;2.63;;;;;;;;;;5053574;28;20041;-83
2023/03/06 11:29:57;;;;;;;5.60;2.75;;;;;;;;;;5054904;28;20039;-83
2023/03/06 11:32:32;;;;;;;5.20;2.40;;;;;;;;;;5037452;28;20029;-83
2023/03/06 11:35:23;;;;;;;6.75;2.40;;;;;;;;;;5053608;28;20037;-83
2023/03/06 11:37:57;;;;;;;6.95;2.85;;;;;;;;;;5039432;28;20483;-83
2023/03/06 11:40:43;;;;;;;5.28;2.20;;;;;;;;;;5040884;28;20045;-83
2023/03/06 11:43:22;;;;;;;6.05;1.80;;;;;;;;;;5058541;28;20570;-83
2023/03/06 11:45:56;;;;;;;4.38;1.98;;;;;;;;;;5039050;28;20045;-83
2023/03/06 11:48:35;;;;;;;4.03;1.75;;;;;;;;;;5050036;28;20486;-83
2023/03/06 11:51:17;;;;;;;3.80;1.88;;;;;;;;;;5040305;28;20120;-83
2023/03/06 11:53:44;;;;;;;6.70;2.00;;;;;;;;;;5051320;28;20037;-83
2023/03/06 11:56:35;;;;;;;6.63;1.83;;;;;;;;;;5032315;28;20052;-83
2023/03/06 11:59:22;;;;;;;3.67;1.80;;;;;;;;;;5040072;28;20055;-83
2023/03/06 12:02:21;;;;;;;6.20;1.55;;;;;;;;;;5017252;28;20036;-83
2023/03/06 12:04:55;;;;;;;3.35;1.40;;;;;;;;;;5036147;28;20049;-83
2023/03/06 12:07:36;;;;;;;9.55;1.13;;;;;;;;;;5048354;28;23764;-83
2023/03/06 12:10:17;;;;;;;3.80;1.67;;;;;;;;;;5039237;28;20049;-83
2023/03/06 12:13:12;;;;;;;2.58;1.50;;;;;;;;;;5031211;28;20423;-83
2023/03/06 12:15:46;;;;;;;2.70;1.27;;;;;;;;;;5056405;28;20037;-83
2023/03/06 12:18:42;;;;;;;4.35;1.20;;;;;;;;;;5019301;28;20040;-83
2023/03/06 12:21:31;;;;;;;4.57;1.42;;;;;;;;;;5024381;28;20094;-83
2023/03/06 12:24:35;;;;;;;3.45;1.38;;;;;;;;;;5053147;28;20120;-83
2023/03/06 12:27:24;;;;;;;1.65;0.88;;;;;;;;;;5020796;28;20037;-83
2023/03/06 12:30:23;;;;;;;1.70;0.90;;;;;;;;;;5018880;28;20573;-83
2023/03/06 12:33:19;;;;;;;2.95;1.15;;;;;;;;;;5032059;28;20128;-83
2023/03/06 12:35:55;;;;;;;4.15;1.48;;;;;;;;;;5032545;28;20524;-83
2023/03/06 12:38:50;;;;;;;3.70;0.90;;;;;;;;;;5035436;28;20544;-83
2023/03/06 12:41:46;;;;;;;3.00;0.90;;;;;;;;;;5036128;28;20036;-83
2023/03/06 12:44:47;;;;;;;1.58;0.60;;;;;;;;;;5054110;28;20022;-80
2023/03/06 12:47:19;;;;;;;1.83;0.70;;;;;;;;;;5055152;28;20047;-80
2023/03/06 12:50:22;;;;;;;1.38;0.80;;;;;;;;;;5037474;28;20033;-80
2023/03/06 12:52:56;;;;;;;3.08;0.70;;;;;;;;;;5033871;28;20072;-80
2023/03/06 12:55:40;;;;;;;2.42;0.90;;;;;;;;;;5037811;28;20468;-80
2023/03/06 12:58:26;;;;;;;2.10;0.70;;;;;;;;;;5052652;28;20185;-80
2023/03/06 13:01:04;;;;;;;1.60;0.68;;;;;;;;;;5035588;28;20044;-80
2023/03/06 13:03:51;;;;;;;3.05;0.82;;;;;;;;;;5033126;28;20042;-80
2023/03/06 13:06:39;;;;;;;1.95;0.65;;;;;;;;;;5050248;28;20427;-80
2023/03/06 13:09:55;;;;;;;2.22;0.60;;;;;;;;;;5020718;28;20037;-81
2023/03/06 13:12:46;;;;;;;0.93;0.47;;;;;;;;;;5058073;28;20437;-81
2023/03/06 13:15:44;;;;;;;1.10;0.55;;;;;;;;;;5036874;28;20116;-80
2023/03/06 13:18:21;;;;;;;2.28;0.40;;;;;;;;;;5051175;28;20426;-80
2023/03/06 13:20:53;;;;;;;2.28;0.70;;;;;;;;;;5033477;28;20049;-80
2023/03/06 13:23:33;;;;;;;1.85;0.55;;;;;;;;;;5035969;28;20136;-80
2023/03/06 13:26:29;;;;;;;1.40;0.52;;;;;;;;;;5050245;28;20605;-80
2023/03/06 13:28:57;;;;;;;1.95;0.77;;;;;;;;;;5051523;28;20442;-80
2023/03/06 13:31:36;;;;;;;2.83;0.80;;;;;;;;;;5034473;28;20613;-80
2023/03/06 13:34:30;;;;;;;1.38;0.68;;;;;;;;;;5037075;28;20073;-80
2023/03/06 13:37:22;;;;;;;1.70;0.50;;;;;;;;;;5043128;28;20459;-80
2023/03/06 13:39:54;;;;;;;1.30;0.65;;;;;;;;;;5052179;28;20045;-80
2023/03/06 13:42:31;;;;;;;1.42;0.60;;;;;;;;;;5039851;28;20921;-80
2023/03/06 13:45:07;;;;;;;1.55;0.50;;;;;;;;;;5038179;28;20132;-80
2023/03/06 13:47:49;;;;;;;1.10;0.52;;;;;;;;;;5058104;28;20055;-80
2023/03/06 13:50:45;;;;;;;1.05;0.43;;;;;;;;;;5040544;28;20041;-80
2023/03/06 13:53:39;;;;;;;2.63;0.68;;;;;;;;;;5040463;28;20129;-80
2023/03/06 13:57:06;;;;;;;3.78;0.88;;;;;;;;;;5041843;28;20127;-80
2023/03/06 14:00:17;;;;;;;1.48;0.60;;;;;;;;;;5044491;28;20155;-80
2023/03/06 14:03:38;;;;;;;3.75;0.80;;;;;;;;;;4985937;28;20046;-80
2023/03/06 14:06:36;;;;;;;1.63;0.80;;;;;;;;;;4997894;28;20270;-80
2023/03/06 14:09:07;;;;;;;1.55;0.77;;;;;;;;;;4983260;28;20062;-80
2023/03/06 14:11:36;;;;;;;4.47;0.90;;;;;;;;;;4996508;28;20062;-80
2023/03/06 14:14:38;;;;;;;5.35;1.10;;;;;;;;;;4992676;28;20158;-80
2023/03/06 14:17:19;;;;;;;3.53;1.25;;;;;;;;;;4976268;28;20042;-80
2023/03/06 14:19:47;;;;;;;1.85;0.95;;;;;;;;;;4986113;28;20536;-80
2023/03/06 14:22:23;;;;;;;2.22;0.90;;;;;;;;;;4982122;28;20158;-80
2023/03/06 14:24:55;;;;;;;2.58;1.00;;;;;;;;;;4979694;28;20045;-80
2023/03/06 14:27:58;;;;;;;1.85;0.80;;;;;;;;;;4992796;28;20528;-80
2023/03/06 14:30:49;;;;;;;2.88;1.02;;;;;;;;;;4923825;29;20123;-80
2023/03/06 14:33:43;;;;;;;1.73;0.80;;;;;;;;;;4922654;29;20426;-80
2023/03/06 14:36:14;;;;;;;1.70;0.57;;;;;;;;;;4923915;29;20052;-80
2023/03/06 14:38:58;;;;;;;1.30;0.55;;;;;;;;;;4926193;28;20107;-80
2023/03/06 14:41:29;;;;;;;7.80;0.70;;;;;;;;;;4943074;28;20046;-80
2023/03/06 14:44:20;;;;;;;4.53;0.80;;;;;;;;;;4928865;28;20502;-80
2023/03/06 14:46:55;;;;;;;0.98;0.50;;;;;;;;;;4955277;28;20065;-80
2023/03/06 14:49:25;;;;;;;3.58;0.60;;;;;;;;;;4958272;28;20146;-80
2023/03/06 14:51:55;;;;;;;3.53;0.60;;;;;;;;;;4939034;28;20056;-80
2023/03/06 14:54:28;;;;;;;4.90;0.70;;;;;;;;;;4942858;28;20162;-80
2023/03/06 14:57:04;;;;;;;1.10;0.70;;;;;;;;;;4941060;28;20469;-81
2023/03/06 14:59:51;;;;;;;1.50;0.70;;;;;;;;;;4941798;28;20051;-81
2023/03/06 15:02:22;;;;;;;2.60;0.90;;;;;;;;;;4940012;28;20043;-82
2023/03/06 15:04:54;;;;;;;2.80;0.90;;;;;;;;;;5013873;28;20545;-82
2023/03/06 15:07:31;;;;;;;2.15;0.88;;;;;;;;;;5050729;28;20048;-80
2023/03/06 15:10:09;;;;;;;2.25;0.90;;;;;;;;;;5053855;28;20118;-80
2023/03/06 15:12:42;;;;;;;3.08;0.82;;;;;;;;;;5039039;28;20045;-81
2023/03/06 15:15:10;;;;;;;3.45;1.08;;;;;;;;;;5037226;28;20043;-81
2023/03/06 15:17:41;;;;;;;3.25;1.17;;;;;;;;;;5050958;28;20510;-82
2023/03/06 15:20:42;;;;;;;1.80;0.90;;;;;;;;;;5019643;28;20040;-81
2023/03/06 15:23:46;;;;;;;2.13;0.80;;;;;;;;;;5023968;28;20441;-80
2023/03/06 15:26:20;;;;;;;2.08;0.80;;;;;;;;;;5037978;28;20041;-81
2023/03/06 15:29:01;;;;;;;3.28;1.15;;;;;;;;;;5038386;28;20064;-80
2023/03/06 15:31:39;;;;;;;3.08;1.20;;;;;;;;;;5037342;28;20041;-80
2023/03/06 15:34:06;;;;;;;4.03;1.02;;;;;;;;;;5053833;28;20036;-81
2023/03/06 15:36:40;;;;;;;2.08;1.10;;;;;;;;;;5019598;28;20036;-81
2023/03/06 15:39:29;;;;;;;2.80;1.23;;;;;;;;;;5044036;28;20247;-81
2023/03/06 15:42:20;;;;;;;2.85;1.45;;;;;;;;;;5041690;28;20125;-80
2023/03/06 15:44:53;;;;;;;6.07;1.75;;;;;;;;;;5052299;28;20029;-82
2023/03/06 15:47:52;;;;;;;3.42;1.30;;;;;;;;;;5025100;28;20049;-82